Terminal Aerodrome Forecast
Issued by NWS

Home | Current Version | Previous Version | Text Only | Print | Product List | Glossary Off
Versions: 1 2 3 4 5 6 7 8 9 10 11 12 13 14 15 16 17 18 19 20 21

007
FTUS43 KICT 152342
TAFHUT
TAF
KHUT 152342Z 1600/1624 14009KT P6SM VCTS SCT040CB BKN100
     FM160200 15009KT P6SM SCT150
     FM160900 16008KT P6SM OVC005
     FM161200 17009KT P6SM VCTS OVC008CB
     FM161400 18009KT P6SM VCTS BKN015CB
     FM161900 22012KT P6SM SCT050 BKN080=

USA.gov is the U.S. government's official web portal to all federal, state and local government web resources and services.